sensor_id;sensor_type;location;lat;lon;timestamp;P1;durP1;ratioP1;P2;durP2;ratioP2
14143;SDS011;7152;48.348;10.980;2023-01-08T00:02:20;9.10;;;8.17;;
14143;SDS011;7152;48.348;10.980;2023-01-08T00:04:45;9.07;;;8.07;;
14143;SDS011;7152;48.348;10.980;2023-01-08T00:07:11;10.73;;;7.90;;
14143;SDS011;7152;48.348;10.980;2023-01-08T00:09:37;9.57;;;8.57;;
14143;SDS011;7152;48.348;10.980;2023-01-08T00:12:02;9.20;;;7.03;;
14143;SDS011;7152;48.348;10.980;2023-01-08T00:14:29;10.23;;;7.77;;
14143;SDS011;7152;48.348;10.980;2023-01-08T00:16:54;8.53;;;7.63;;
14143;SDS011;7152;48.348;10.980;2023-01-08T00:19:20;8.10;;;7.30;;
14143;SDS011;7152;48.348;10.980;2023-01-08T00:21:46;10.13;;;8.93;;
14143;SDS011;7152;48.348;10.980;2023-01-08T00:24:11;9.03;;;8.13;;
14143;SDS011;7152;48.348;10.980;2023-01-08T00:26:37;8.40;;;7.60;;
14143;SDS011;7152;48.348;10.980;2023-01-08T00:29:02;8.17;;;7.37;;
14143;SDS011;7152;48.348;10.980;2023-01-08T00:31:28;9.57;;;7.97;;
14143;SDS011;7152;48.348;10.980;2023-01-08T00:33:54;10.13;;;8.47;;
14143;SDS011;7152;48.348;10.980;2023-01-08T00:36:19;9.77;;;8.30;;
14143;SDS011;7152;48.348;10.980;2023-01-08T00:38:45;8.47;;;7.57;;
14143;SDS011;7152;48.348;10.980;2023-01-08T00:41:12;9.50;;;8.50;;
14143;SDS011;7152;48.348;10.980;2023-01-08T00:43:38;9.87;;;7.67;;
14143;SDS011;7152;48.348;10.980;2023-01-08T00:46:04;10.93;;;8.70;;
14143;SDS011;7152;48.348;10.980;2023-01-08T00:48:30;8.90;;;7.83;;
14143;SDS011;7152;48.348;10.980;2023-01-08T00:51:00;9.97;;;8.30;;
14143;SDS011;7152;48.348;10.980;2023-01-08T00:53:27;8.10;;;7.30;;
14143;SDS011;7152;48.348;10.980;2023-01-08T00:56:00;10.13;;;8.40;;
14143;SDS011;7152;48.348;10.980;2023-01-08T00:58:30;9.33;;;7.90;;
14143;SDS011;7152;48.348;10.980;2023-01-08T01:00:56;9.30;;;7.07;;
14143;SDS011;7152;48.348;10.980;2023-01-08T01:03:22;10.00;;;8.00;;
14143;SDS011;7152;48.348;10.980;2023-01-08T01:05:48;7.73;;;6.93;;
14143;SDS011;7152;48.348;10.980;2023-01-08T01:08:14;7.70;;;6.67;;
14143;SDS011;7152;48.348;10.980;2023-01-08T01:10:40;7.53;;;6.83;;
14143;SDS011;7152;48.348;10.980;2023-01-08T01:13:05;8.63;;;7.10;;
14143;SDS011;7152;48.348;10.980;2023-01-08T01:15:31;8.23;;;6.93;;
14143;SDS011;7152;48.348;10.980;2023-01-08T01:17:57;7.33;;;6.63;;
14143;SDS011;7152;48.348;10.980;2023-01-08T01:20:23;7.57;;;6.87;;
14143;SDS011;7152;48.348;10.980;2023-01-08T01:22:49;8.30;;;7.43;;
14143;SDS011;7152;48.348;10.980;2023-01-08T01:25:15;8.00;;;6.57;;
14143;SDS011;7152;48.348;10.980;2023-01-08T01:27:41;8.30;;;6.60;;
14143;SDS011;7152;48.348;10.980;2023-01-08T01:30:07;7.40;;;6.50;;
14143;SDS011;7152;48.348;10.980;2023-01-08T01:32:33;6.73;;;5.97;;
14143;SDS011;7152;48.348;10.980;2023-01-08T01:34:59;6.87;;;6.23;;
14143;SDS011;7152;48.348;10.980;2023-01-08T01:37:25;6.77;;;6.07;;
14143;SDS011;7152;48.348;10.980;2023-01-08T01:39:51;6.53;;;5.93;;
14143;SDS011;7152;48.348;10.980;2023-01-08T01:42:18;6.87;;;6.17;;
14143;SDS011;7152;48.348;10.980;2023-01-08T01:45:04;7.60;;;5.80;;
14143;SDS011;7152;48.348;10.980;2023-01-08T01:47:36;7.63;;;6.40;;
14143;SDS011;7152;48.348;10.980;2023-01-08T01:52:50;6.63;;;5.73;;
14143;SDS011;7152;48.348;10.980;2023-01-08T01:55:34;7.03;;;5.60;;
14143;SDS011;7152;48.348;10.980;2023-01-08T01:58:12;7.03;;;6.30;;
14143;SDS011;7152;48.348;10.980;2023-01-08T02:00:41;6.77;;;6.10;;
14143;SDS011;7152;48.348;10.980;2023-01-08T02:03:08;6.97;;;6.17;;
14143;SDS011;7152;48.348;10.980;2023-01-08T02:05:45;5.77;;;5.20;;
14143;SDS011;7152;48.348;10.980;2023-01-08T02:08:20;5.87;;;5.33;;
14143;SDS011;7152;48.348;10.980;2023-01-08T02:11:05;6.13;;;5.50;;
14143;SDS011;7152;48.348;10.980;2023-01-08T02:13:38;8.03;;;5.60;;
14143;SDS011;7152;48.348;10.980;2023-01-08T02:19:16;6.73;;;6.03;;
14143;SDS011;7152;48.348;10.980;2023-01-08T02:24:55;6.33;;;5.73;;
14143;SDS011;7152;48.348;10.980;2023-01-08T02:27:35;6.63;;;5.17;;
14143;SDS011;7152;48.348;10.980;2023-01-08T02:30:03;6.23;;;5.40;;
14143;SDS011;7152;48.348;10.980;2023-01-08T02:32:35;5.90;;;5.37;;
14143;SDS011;7152;48.348;10.980;2023-01-08T02:35:03;6.33;;;5.63;;
14143;SDS011;7152;48.348;10.980;2023-01-08T02:37:30;6.07;;;5.10;;
14143;SDS011;7152;48.348;10.980;2023-01-08T02:40:05;6.30;;;5.73;;
14143;SDS011;7152;48.348;10.980;2023-01-08T02:45:38;5.47;;;4.97;;
14143;SDS011;7152;48.348;10.980;2023-01-08T02:48:16;5.63;;;5.07;;
14143;SDS011;7152;48.348;10.980;2023-01-08T02:53:51;5.73;;;5.20;;
14143;SDS011;7152;48.348;10.980;2023-01-08T02:56:23;6.00;;;5.43;;
14143;SDS011;7152;48.348;10.980;2023-01-08T02:58:52;5.67;;;5.17;;
14143;SDS011;7152;48.348;10.980;2023-01-08T03:01:20;5.57;;;4.87;;
14143;SDS011;7152;48.348;10.980;2023-01-08T03:03:58;6.30;;;4.80;;
14143;SDS011;7152;48.348;10.980;2023-01-08T03:06:27;6.00;;;5.23;;
14143;SDS011;7152;48.348;10.980;2023-01-08T03:08:53;6.23;;;4.93;;
14143;SDS011;7152;48.348;10.980;2023-01-08T03:11:20;7.40;;;5.10;;
14143;SDS011;7152;48.348;10.980;2023-01-08T03:16:40;6.40;;;5.70;;
14143;SDS011;7152;48.348;10.980;2023-01-08T03:21:49;5.47;;;4.97;;
14143;SDS011;7152;48.348;10.980;2023-01-08T03:24:20;7.03;;;5.20;;
14143;SDS011;7152;48.348;10.980;2023-01-08T03:26:49;6.00;;;5.20;;
14143;SDS011;7152;48.348;10.980;2023-01-08T03:29:18;5.30;;;4.80;;
14143;SDS011;7152;48.348;10.980;2023-01-08T03:31:48;5.90;;;5.20;;
14143;SDS011;7152;48.348;10.980;2023-01-08T03:34:16;7.07;;;5.70;;
14143;SDS011;7152;48.348;10.980;2023-01-08T03:36:45;6.50;;;5.50;;
14143;SDS011;7152;48.348;10.980;2023-01-08T03:39:17;5.57;;;5.07;;
14143;SDS011;7152;48.348;10.980;2023-01-08T03:41:47;5.87;;;5.13;;
14143;SDS011;7152;48.348;10.980;2023-01-08T03:44:13;6.37;;;5.77;;
14143;SDS011;7152;48.348;10.980;2023-01-08T03:46:41;5.97;;;5.07;;
14143;SDS011;7152;48.348;10.980;2023-01-08T03:49:12;5.83;;;5.20;;
14143;SDS011;7152;48.348;10.980;2023-01-08T03:51:40;6.03;;;5.30;;
14143;SDS011;7152;48.348;10.980;2023-01-08T03:54:08;5.73;;;4.80;;
14143;SDS011;7152;48.348;10.980;2023-01-08T03:56:37;5.77;;;5.17;;
14143;SDS011;7152;48.348;10.980;2023-01-08T03:59:03;5.43;;;4.30;;
14143;SDS011;7152;48.348;10.980;2023-01-08T04:01:28;5.53;;;4.93;;
14143;SDS011;7152;48.348;10.980;2023-01-08T04:03:54;4.97;;;4.47;;
14143;SDS011;7152;48.348;10.980;2023-01-08T04:06:20;4.80;;;4.20;;
14143;SDS011;7152;48.348;10.980;2023-01-08T04:08:48;5.07;;;4.40;;
14143;SDS011;7152;48.348;10.980;2023-01-08T04:11:14;5.00;;;4.33;;
14143;SDS011;7152;48.348;10.980;2023-01-08T04:13:40;4.73;;;4.27;;
14143;SDS011;7152;48.348;10.980;2023-01-08T04:16:06;4.67;;;4.13;;
14143;SDS011;7152;48.348;10.980;2023-01-08T04:18:32;6.07;;;4.27;;
14143;SDS011;7152;48.348;10.980;2023-01-08T04:20:58;4.80;;;4.30;;
14143;SDS011;7152;48.348;10.980;2023-01-08T04:23:24;4.70;;;4.30;;
14143;SDS011;7152;48.348;10.980;2023-01-08T04:25:50;5.23;;;4.57;;
14143;SDS011;7152;48.348;10.980;2023-01-08T04:28:16;4.87;;;4.03;;
14143;SDS011;7152;48.348;10.980;2023-01-08T04:30:42;5.27;;;4.40;;
14143;SDS011;7152;48.348;10.980;2023-01-08T04:33:07;6.47;;;4.50;;
14143;SDS011;7152;48.348;10.980;2023-01-08T04:35:33;4.90;;;4.50;;
14143;SDS011;7152;48.348;10.980;2023-01-08T04:37:59;5.13;;;4.63;;
14143;SDS011;7152;48.348;10.980;2023-01-08T04:40:24;7.07;;;4.57;;
14143;SDS011;7152;48.348;10.980;2023-01-08T04:42:50;4.90;;;4.40;;
14143;SDS011;7152;48.348;10.980;2023-01-08T04:45:15;6.60;;;5.07;;
14143;SDS011;7152;48.348;10.980;2023-01-08T04:47:41;5.23;;;4.73;;
14143;SDS011;7152;48.348;10.980;2023-01-08T04:50:07;6.30;;;4.93;;
14143;SDS011;7152;48.348;10.980;2023-01-08T04:52:33;5.63;;;4.60;;
14143;SDS011;7152;48.348;10.980;2023-01-08T04:54:58;6.10;;;5.00;;
14143;SDS011;7152;48.348;10.980;2023-01-08T04:57:24;5.07;;;4.67;;
14143;SDS011;7152;48.348;10.980;2023-01-08T04:59:50;5.10;;;4.60;;
14143;SDS011;7152;48.348;10.980;2023-01-08T05:02:15;6.33;;;5.17;;
14143;SDS011;7152;48.348;10.980;2023-01-08T05:04:41;6.03;;;5.13;;
14143;SDS011;7152;48.348;10.980;2023-01-08T05:07:06;5.67;;;4.80;;
14143;SDS011;7152;48.348;10.980;2023-01-08T05:09:32;5.83;;;5.00;;
14143;SDS011;7152;48.348;10.980;2023-01-08T05:11:58;5.40;;;4.90;;
14143;SDS011;7152;48.348;10.980;2023-01-08T05:14:24;5.57;;;5.07;;
14143;SDS011;7152;48.348;10.980;2023-01-08T05:16:50;6.23;;;5.63;;
14143;SDS011;7152;48.348;10.980;2023-01-08T05:19:15;5.60;;;5.03;;
14143;SDS011;7152;48.348;10.980;2023-01-08T05:21:41;4.87;;;4.37;;
14143;SDS011;7152;48.348;10.980;2023-01-08T05:24:07;6.30;;;5.30;;
14143;SDS011;7152;48.348;10.980;2023-01-08T05:26:33;5.70;;;4.37;;
14143;SDS011;7152;48.348;10.980;2023-01-08T05:28:59;5.40;;;4.50;;
14143;SDS011;7152;48.348;10.980;2023-01-08T05:31:25;5.03;;;4.53;;
14143;SDS011;7152;48.348;10.980;2023-01-08T05:33:51;4.80;;;4.10;;
14143;SDS011;7152;48.348;10.980;2023-01-08T05:36:16;4.83;;;4.30;;
14143;SDS011;7152;48.348;10.980;2023-01-08T05:38:42;5.37;;;4.40;;
14143;SDS011;7152;48.348;10.980;2023-01-08T05:41:08;4.63;;;4.23;;
14143;SDS011;7152;48.348;10.980;2023-01-08T05:43:34;4.50;;;3.93;;
14143;SDS011;7152;48.348;10.980;2023-01-08T05:46:01;4.93;;;4.47;;
14143;SDS011;7152;48.348;10.980;2023-01-08T05:48:28;4.77;;;4.37;;
14143;SDS011;7152;48.348;10.980;2023-01-08T05:50:54;6.13;;;4.47;;
14143;SDS011;7152;48.348;10.980;2023-01-08T05:53:20;8.97;;;7.37;;
14143;SDS011;7152;48.348;10.980;2023-01-08T05:55:46;4.80;;;4.33;;
14143;SDS011;7152;48.348;10.980;2023-01-08T05:58:12;5.90;;;4.93;;
14143;SDS011;7152;48.348;10.980;2023-01-08T06:00:38;4.50;;;4.10;;
14143;SDS011;7152;48.348;10.980;2023-01-08T06:03:04;3.80;;;3.50;;
14143;SDS011;7152;48.348;10.980;2023-01-08T06:05:30;4.20;;;3.80;;
14143;SDS011;7152;48.348;10.980;2023-01-08T06:07:56;5.47;;;4.60;;
14143;SDS011;7152;48.348;10.980;2023-01-08T06:10:22;18.17;;;12.77;;
14143;SDS011;7152;48.348;10.980;2023-01-08T06:12:48;5.73;;;5.13;;
14143;SDS011;7152;48.348;10.980;2023-01-08T06:15:13;3.87;;;3.47;;
14143;SDS011;7152;48.348;10.980;2023-01-08T06:17:39;4.17;;;3.77;;
14143;SDS011;7152;48.348;10.980;2023-01-08T06:20:05;3.90;;;3.60;;
14143;SDS011;7152;48.348;10.980;2023-01-08T06:22:32;4.73;;;3.43;;
14143;SDS011;7152;48.348;10.980;2023-01-08T06:24:58;3.87;;;3.57;;
14143;SDS011;7152;48.348;10.980;2023-01-08T06:27:24;3.70;;;3.40;;
14143;SDS011;7152;48.348;10.980;2023-01-08T06:29:49;3.93;;;3.63;;
14143;SDS011;7152;48.348;10.980;2023-01-08T06:32:15;4.90;;;4.47;;
14143;SDS011;7152;48.348;10.980;2023-01-08T06:34:41;6.53;;;5.10;;
14143;SDS011;7152;48.348;10.980;2023-01-08T06:37:06;13.37;;;10.67;;
14143;SDS011;7152;48.348;10.980;2023-01-08T06:39:32;12.17;;;9.93;;
14143;SDS011;7152;48.348;10.980;2023-01-08T06:41:58;9.93;;;8.23;;
14143;SDS011;7152;48.348;10.980;2023-01-08T06:44:23;6.03;;;5.43;;
14143;SDS011;7152;48.348;10.980;2023-01-08T06:46:49;5.40;;;4.00;;
14143;SDS011;7152;48.348;10.980;2023-01-08T06:49:15;4.63;;;4.23;;
14143;SDS011;7152;48.348;10.980;2023-01-08T06:51:41;6.30;;;5.07;;
14143;SDS011;7152;48.348;10.980;2023-01-08T06:54:07;5.30;;;4.80;;
14143;SDS011;7152;48.348;10.980;2023-01-08T06:56:33;5.03;;;4.53;;
14143;SDS011;7152;48.348;10.980;2023-01-08T06:58:59;5.83;;;4.33;;
14143;SDS011;7152;48.348;10.980;2023-01-08T07:01:25;3.37;;;3.07;;
14143;SDS011;7152;48.348;10.980;2023-01-08T07:03:50;5.43;;;4.80;;
14143;SDS011;7152;48.348;10.980;2023-01-08T07:06:20;8.87;;;6.77;;
14143;SDS011;7152;48.348;10.980;2023-01-08T07:08:46;8.90;;;6.57;;
14143;SDS011;7152;48.348;10.980;2023-01-08T07:11:13;6.03;;;5.43;;
14143;SDS011;7152;48.348;10.980;2023-01-08T07:13:39;8.03;;;6.37;;
14143;SDS011;7152;48.348;10.980;2023-01-08T07:16:08;5.27;;;4.77;;
14143;SDS011;7152;48.348;10.980;2023-01-08T07:18:36;5.97;;;3.70;;
14143;SDS011;7152;48.348;10.980;2023-01-08T07:21:03;3.90;;;3.60;;
14143;SDS011;7152;48.348;10.980;2023-01-08T07:23:29;3.80;;;3.50;;
14143;SDS011;7152;48.348;10.980;2023-01-08T07:25:59;5.00;;;4.50;;
14143;SDS011;7152;48.348;10.980;2023-01-08T07:28:26;4.47;;;3.97;;
14143;SDS011;7152;48.348;10.980;2023-01-08T07:30:52;8.33;;;6.63;;
14143;SDS011;7152;48.348;10.980;2023-01-08T07:33:17;7.87;;;6.17;;
14143;SDS011;7152;48.348;10.980;2023-01-08T07:35:43;4.90;;;4.40;;
14143;SDS011;7152;48.348;10.980;2023-01-08T07:38:15;5.20;;;4.27;;
14143;SDS011;7152;48.348;10.980;2023-01-08T07:40:40;4.47;;;4.07;;
14143;SDS011;7152;48.348;10.980;2023-01-08T07:43:06;3.30;;;3.00;;
14143;SDS011;7152;48.348;10.980;2023-01-08T07:45:33;8.40;;;6.30;;
14143;SDS011;7152;48.348;10.980;2023-01-08T07:47:58;9.97;;;7.93;;
14143;SDS011;7152;48.348;10.980;2023-01-08T07:50:24;5.10;;;4.60;;
14143;SDS011;7152;48.348;10.980;2023-01-08T07:52:51;4.33;;;3.73;;
14143;SDS011;7152;48.348;10.980;2023-01-08T07:55:16;4.57;;;3.13;;
14143;SDS011;7152;48.348;10.980;2023-01-08T07:57:42;3.57;;;3.27;;
14143;SDS011;7152;48.348;10.980;2023-01-08T08:00:08;3.97;;;3.53;;
14143;SDS011;7152;48.348;10.980;2023-01-08T08:02:34;3.60;;;3.30;;
14143;SDS011;7152;48.348;10.980;2023-01-08T08:05:00;4.27;;;3.47;;
14143;SDS011;7152;48.348;10.980;2023-01-08T08:07:25;3.50;;;3.20;;
14143;SDS011;7152;48.348;10.980;2023-01-08T08:09:51;4.13;;;3.63;;
14143;SDS011;7152;48.348;10.980;2023-01-08T08:12:16;4.17;;;3.77;;
14143;SDS011;7152;48.348;10.980;2023-01-08T08:14:42;4.67;;;4.27;;
14143;SDS011;7152;48.348;10.980;2023-01-08T08:17:08;5.00;;;4.60;;
14143;SDS011;7152;48.348;10.980;2023-01-08T08:19:33;7.20;;;5.00;;
14143;SDS011;7152;48.348;10.980;2023-01-08T08:21:59;5.97;;;4.33;;
14143;SDS011;7152;48.348;10.980;2023-01-08T08:24:25;4.73;;;4.30;;
14143;SDS011;7152;48.348;10.980;2023-01-08T08:26:50;6.73;;;3.70;;
14143;SDS011;7152;48.348;10.980;2023-01-08T08:29:18;4.23;;;3.13;;
14143;SDS011;7152;48.348;10.980;2023-01-08T08:31:44;3.77;;;3.47;;
14143;SDS011;7152;48.348;10.980;2023-01-08T08:34:10;4.47;;;3.37;;
14143;SDS011;7152;48.348;10.980;2023-01-08T08:36:35;4.27;;;3.60;;
14143;SDS011;7152;48.348;10.980;2023-01-08T08:39:01;3.53;;;3.23;;
14143;SDS011;7152;48.348;10.980;2023-01-08T08:41:27;3.43;;;3.10;;
14143;SDS011;7152;48.348;10.980;2023-01-08T08:43:53;4.00;;;3.60;;
14143;SDS011;7152;48.348;10.980;2023-01-08T08:46:19;3.43;;;3.13;;
14143;SDS011;7152;48.348;10.980;2023-01-08T08:48:44;3.53;;;3.17;;
14143;SDS011;7152;48.348;10.980;2023-01-08T08:51:10;3.53;;;3.17;;
14143;SDS011;7152;48.348;10.980;2023-01-08T08:53:36;2.73;;;2.53;;
14143;SDS011;7152;48.348;10.980;2023-01-08T08:56:02;3.50;;;3.20;;
14143;SDS011;7152;48.348;10.980;2023-01-08T08:58:27;3.43;;;3.13;;
14143;SDS011;7152;48.348;10.980;2023-01-08T09:00:53;3.07;;;2.87;;
14143;SDS011;7152;48.348;10.980;2023-01-08T09:03:19;3.87;;;3.37;;
14143;SDS011;7152;48.348;10.980;2023-01-08T09:05:44;3.40;;;3.10;;
14143;SDS011;7152;48.348;10.980;2023-01-08T09:08:10;5.17;;;4.20;;
14143;SDS011;7152;48.348;10.980;2023-01-08T09:10:37;4.07;;;3.63;;
14143;SDS011;7152;48.348;10.980;2023-01-08T09:13:05;3.87;;;3.50;;
14143;SDS011;7152;48.348;10.980;2023-01-08T09:15:31;3.57;;;3.27;;
14143;SDS011;7152;48.348;10.980;2023-01-08T09:17:56;3.37;;;3.07;;
14143;SDS011;7152;48.348;10.980;2023-01-08T09:20:23;3.87;;;3.57;;
14143;SDS011;7152;48.348;10.980;2023-01-08T09:22:50;3.20;;;3.00;;
14143;SDS011;7152;48.348;10.980;2023-01-08T09:25:15;3.63;;;3.33;;
14143;SDS011;7152;48.348;10.980;2023-01-08T09:27:41;4.90;;;3.67;;
14143;SDS011;7152;48.348;10.980;2023-01-08T09:30:07;3.00;;;2.67;;
14143;SDS011;7152;48.348;10.980;2023-01-08T09:32:33;4.20;;;3.10;;
14143;SDS011;7152;48.348;10.980;2023-01-08T09:34:58;3.53;;;3.23;;
14143;SDS011;7152;48.348;10.980;2023-01-08T09:37:24;4.00;;;3.60;;
14143;SDS011;7152;48.348;10.980;2023-01-08T09:39:50;3.40;;;3.10;;
14143;SDS011;7152;48.348;10.980;2023-01-08T09:42:18;3.87;;;3.30;;
14143;SDS011;7152;48.348;10.980;2023-01-08T09:44:46;3.40;;;3.07;;
14143;SDS011;7152;48.348;10.980;2023-01-08T09:47:29;3.47;;;3.17;;
14143;SDS011;7152;48.348;10.980;2023-01-08T09:50:00;4.00;;;3.60;;
14143;SDS011;7152;48.348;10.980;2023-01-08T09:52:29;4.33;;;3.70;;
14143;SDS011;7152;48.348;10.980;2023-01-08T09:54:56;4.07;;;3.67;;
14143;SDS011;7152;48.348;10.980;2023-01-08T09:57:21;3.60;;;3.30;;
14143;SDS011;7152;48.348;10.980;2023-01-08T09:59:47;5.60;;;3.23;;
14143;SDS011;7152;48.348;10.980;2023-01-08T10:02:21;4.00;;;3.60;;
14143;SDS011;7152;48.348;10.980;2023-01-08T10:04:52;8.60;;;5.47;;
14143;SDS011;7152;48.348;10.980;2023-01-08T10:07:21;14.67;;;8.33;;
14143;SDS011;7152;48.348;10.980;2023-01-08T10:09:50;8.53;;;5.60;;
14143;SDS011;7152;48.348;10.980;2023-01-08T10:12:23;6.70;;;6.00;;
14143;SDS011;7152;48.348;10.980;2023-01-08T10:14:55;5.90;;;4.53;;
14143;SDS011;7152;48.348;10.980;2023-01-08T10:19:54;4.60;;;3.70;;
14143;SDS011;7152;48.348;10.980;2023-01-08T10:22:22;4.47;;;4.07;;
14143;SDS011;7152;48.348;10.980;2023-01-08T10:24:49;4.60;;;3.80;;
14143;SDS011;7152;48.348;10.980;2023-01-08T10:27:17;4.53;;;4.07;;
14143;SDS011;7152;48.348;10.980;2023-01-08T10:29:48;4.20;;;3.80;;
14143;SDS011;7152;48.348;10.980;2023-01-08T10:32:16;4.47;;;3.90;;
14143;SDS011;7152;48.348;10.980;2023-01-08T10:34:56;4.80;;;4.23;;
14143;SDS011;7152;48.348;10.980;2023-01-08T10:42:47;3.47;;;3.17;;
14143;SDS011;7152;48.348;10.980;2023-01-08T10:45:19;4.40;;;4.00;;
14143;SDS011;7152;48.348;10.980;2023-01-08T10:47:48;5.70;;;5.10;;
14143;SDS011;7152;48.348;10.980;2023-01-08T10:50:24;7.90;;;6.60;;
14143;SDS011;7152;48.348;10.980;2023-01-08T10:52:55;17.20;;;10.70;;
14143;SDS011;7152;48.348;10.980;2023-01-08T10:55:27;11.63;;;9.07;;
14143;SDS011;7152;48.348;10.980;2023-01-08T11:00:34;16.83;;;14.73;;
14143;SDS011;7152;48.348;10.980;2023-01-08T11:03:01;10.27;;;8.47;;
14143;SDS011;7152;48.348;10.980;2023-01-08T11:05:34;6.47;;;5.87;;
14143;SDS011;7152;48.348;10.980;2023-01-08T11:08:03;5.27;;;4.77;;
14143;SDS011;7152;48.348;10.980;2023-01-08T11:10:31;5.80;;;4.73;;
14143;SDS011;7152;48.348;10.980;2023-01-08T11:12:59;5.20;;;4.70;;
14143;SDS011;7152;48.348;10.980;2023-01-08T11:15:32;5.37;;;4.50;;
14143;SDS011;7152;48.348;10.980;2023-01-08T11:18:05;5.20;;;4.70;;
14143;SDS011;7152;48.348;10.980;2023-01-08T11:20:38;5.50;;;5.00;;
14143;SDS011;7152;48.348;10.980;2023-01-08T11:23:12;7.27;;;6.07;;
14143;SDS011;7152;48.348;10.980;2023-01-08T11:25:51;6.80;;;5.77;;
14143;SDS011;7152;48.348;10.980;2023-01-08T11:29:10;5.80;;;5.23;;
14143;SDS011;7152;48.348;10.980;2023-01-08T11:34:30;6.97;;;5.07;;
14143;SDS011;7152;48.348;10.980;2023-01-08T11:37:03;4.53;;;4.07;;
14143;SDS011;7152;48.348;10.980;2023-01-08T11:39:36;4.90;;;4.10;;
14143;SDS011;7152;48.348;10.980;2023-01-08T11:55:57;6.37;;;5.80;;
14143;SDS011;7152;48.348;10.980;2023-01-08T12:01:06;4.83;;;3.90;;
14143;SDS011;7152;48.348;10.980;2023-01-08T12:04:01;4.47;;;4.07;;
14143;SDS011;7152;48.348;10.980;2023-01-08T12:14:36;6.20;;;5.60;;
14143;SDS011;7152;48.348;10.980;2023-01-08T12:17:34;5.43;;;4.13;;
14143;SDS011;7152;48.348;10.980;2023-01-08T12:20:25;5.23;;;4.70;;
14143;SDS011;7152;48.348;10.980;2023-01-08T12:26:11;5.67;;;4.97;;
14143;SDS011;7152;48.348;10.980;2023-01-08T12:31:56;4.53;;;4.13;;
14143;SDS011;7152;48.348;10.980;2023-01-08T12:34:35;4.90;;;4.40;;
14143;SDS011;7152;48.348;10.980;2023-01-08T12:40:26;27.57;;;19.13;;
14143;SDS011;7152;48.348;10.980;2023-01-08T12:42:53;13.40;;;12.00;;
14143;SDS011;7152;48.348;10.980;2023-01-08T12:45:20;19.63;;;17.77;;
14143;SDS011;7152;48.348;10.980;2023-01-08T12:47:53;30.00;;;26.87;;
14143;SDS011;7152;48.348;10.980;2023-01-08T12:50:46;6.47;;;5.40;;
14143;SDS011;7152;48.348;10.980;2023-01-08T12:56:07;20.73;;;18.63;;
14143;SDS011;7152;48.348;10.980;2023-01-08T12:58:51;8.40;;;7.70;;
14143;SDS011;7152;48.348;10.980;2023-01-08T13:04:39;4.63;;;4.23;;
14143;SDS011;7152;48.348;10.980;2023-01-08T13:07:18;4.20;;;3.83;;
14143;SDS011;7152;48.348;10.980;2023-01-08T13:09:54;4.80;;;3.90;;
14143;SDS011;7152;48.348;10.980;2023-01-08T13:12:32;4.33;;;3.70;;
14143;SDS011;7152;48.348;10.980;2023-01-08T13:15:03;4.40;;;3.93;;
14143;SDS011;7152;48.348;10.980;2023-01-08T13:17:30;4.30;;;3.90;;
14143;SDS011;7152;48.348;10.980;2023-01-08T13:19:59;4.60;;;4.10;;
14143;SDS011;7152;48.348;10.980;2023-01-08T13:25:08;4.73;;;4.10;;
14143;SDS011;7152;48.348;10.980;2023-01-08T13:27:33;4.20;;;3.80;;
14143;SDS011;7152;48.348;10.980;2023-01-08T13:29:59;4.43;;;4.03;;
14143;SDS011;7152;48.348;10.980;2023-01-08T13:32:44;4.30;;;3.90;;
14143;SDS011;7152;48.348;10.980;2023-01-08T13:37:43;4.50;;;4.10;;
14143;SDS011;7152;48.348;10.980;2023-01-08T13:43:01;4.30;;;3.90;;
14143;SDS011;7152;48.348;10.980;2023-01-08T13:45:29;5.63;;;3.83;;
14143;SDS011;7152;48.348;10.980;2023-01-08T13:47:55;4.00;;;3.63;;
14143;SDS011;7152;48.348;10.980;2023-01-08T13:50:22;6.20;;;5.27;;
14143;SDS011;7152;48.348;10.980;2023-01-08T13:53:02;8.17;;;7.20;;
14143;SDS011;7152;48.348;10.980;2023-01-08T13:55:32;10.47;;;8.43;;
14143;SDS011;7152;48.348;10.980;2023-01-08T13:58:04;14.13;;;10.30;;
14143;SDS011;7152;48.348;10.980;2023-01-08T14:00:42;15.40;;;10.27;;
14143;SDS011;7152;48.348;10.980;2023-01-08T14:03:24;10.90;;;7.50;;
14143;SDS011;7152;48.348;10.980;2023-01-08T14:06:04;8.67;;;6.47;;
14143;SDS011;7152;48.348;10.980;2023-01-08T14:08:36;6.87;;;6.00;;
14143;SDS011;7152;48.348;10.980;2023-01-08T14:11:02;11.07;;;7.17;;
14143;SDS011;7152;48.348;10.980;2023-01-08T14:13:29;9.80;;;8.30;;
14143;SDS011;7152;48.348;10.980;2023-01-08T14:16:00;8.30;;;7.50;;
14143;SDS011;7152;48.348;10.980;2023-01-08T14:18:28;8.57;;;7.00;;
14143;SDS011;7152;48.348;10.980;2023-01-08T14:20:54;13.67;;;11.43;;
14143;SDS011;7152;48.348;10.980;2023-01-08T14:23:21;9.80;;;8.80;;
14143;SDS011;7152;48.348;10.980;2023-01-08T14:25:48;18.00;;;16.10;;
14143;SDS011;7152;48.348;10.980;2023-01-08T14:28:16;12.30;;;10.17;;
14143;SDS011;7152;48.348;10.980;2023-01-08T14:30:50;12.47;;;11.27;;
14143;SDS011;7152;48.348;10.980;2023-01-08T14:33:31;9.80;;;8.43;;
14143;SDS011;7152;48.348;10.980;2023-01-08T14:35:58;12.53;;;9.00;;
14143;SDS011;7152;48.348;10.980;2023-01-08T14:38:26;14.13;;;12.27;;
14143;SDS011;7152;48.348;10.980;2023-01-08T14:43:26;13.43;;;12.03;;
14143;SDS011;7152;48.348;10.980;2023-01-08T14:45:52;13.60;;;12.20;;
14143;SDS011;7152;48.348;10.980;2023-01-08T14:48:23;11.70;;;10.47;;
14143;SDS011;7152;48.348;10.980;2023-01-08T14:51:03;10.73;;;9.63;;
14143;SDS011;7152;48.348;10.980;2023-01-08T14:56:19;8.00;;;7.20;;
14143;SDS011;7152;48.348;10.980;2023-01-08T14:58:48;8.57;;;7.77;;
14143;SDS011;7152;48.348;10.980;2023-01-08T15:01:21;8.40;;;7.30;;
14143;SDS011;7152;48.348;10.980;2023-01-08T15:03:50;8.40;;;7.60;;
14143;SDS011;7152;48.348;10.980;2023-01-08T15:06:28;10.10;;;8.63;;
14143;SDS011;7152;48.348;10.980;2023-01-08T15:08:55;10.60;;;9.10;;
14143;SDS011;7152;48.348;10.980;2023-01-08T15:11:26;11.13;;;9.93;;
14143;SDS011;7152;48.348;10.980;2023-01-08T15:13:54;11.00;;;9.83;;
14143;SDS011;7152;48.348;10.980;2023-01-08T15:16:38;10.97;;;9.00;;
14143;SDS011;7152;48.348;10.980;2023-01-08T15:19:14;12.10;;;9.73;;
14143;SDS011;7152;48.348;10.980;2023-01-08T15:21:56;11.63;;;10.43;;
14143;SDS011;7152;48.348;10.980;2023-01-08T15:27:00;12.50;;;11.20;;
14143;SDS011;7152;48.348;10.980;2023-01-08T15:29:33;16.53;;;13.90;;
14143;SDS011;7152;48.348;10.980;2023-01-08T15:34:41;15.93;;;13.97;;
14143;SDS011;7152;48.348;10.980;2023-01-08T15:37:07;16.10;;;13.97;;
14143;SDS011;7152;48.348;10.980;2023-01-08T15:39:33;16.93;;;13.57;;
14143;SDS011;7152;48.348;10.980;2023-01-08T15:42:08;15.87;;;13.67;;
14143;SDS011;7152;48.348;10.980;2023-01-08T15:45:14;15.37;;;13.27;;
14143;SDS011;7152;48.348;10.980;2023-01-08T15:47:43;14.73;;;13.13;;
14143;SDS011;7152;48.348;10.980;2023-01-08T15:50:09;17.27;;;13.83;;
14143;SDS011;7152;48.348;10.980;2023-01-08T15:52:36;15.60;;;13.37;;
14143;SDS011;7152;48.348;10.980;2023-01-08T15:55:03;16.07;;;13.80;;
14143;SDS011;7152;48.348;10.980;2023-01-08T15:57:29;15.77;;;13.03;;
14143;SDS011;7152;48.348;10.980;2023-01-08T15:59:55;14.73;;;11.60;;
14143;SDS011;7152;48.348;10.980;2023-01-08T16:02:21;13.47;;;11.77;;
14143;SDS011;7152;48.348;10.980;2023-01-08T16:04:50;14.50;;;12.17;;
14143;SDS011;7152;48.348;10.980;2023-01-08T16:07:17;13.30;;;11.90;;
14143;SDS011;7152;48.348;10.980;2023-01-08T16:09:42;13.80;;;11.27;;
14143;SDS011;7152;48.348;10.980;2023-01-08T16:12:08;14.30;;;11.70;;
14143;SDS011;7152;48.348;10.980;2023-01-08T16:14:34;14.33;;;11.53;;
14143;SDS011;7152;48.348;10.980;2023-01-08T16:17:02;15.63;;;13.57;;
14143;SDS011;7152;48.348;10.980;2023-01-08T16:19:28;16.47;;;13.33;;
14143;SDS011;7152;48.348;10.980;2023-01-08T16:21:55;14.40;;;12.73;;
14143;SDS011;7152;48.348;10.980;2023-01-08T16:24:21;12.73;;;11.17;;
14143;SDS011;7152;48.348;10.980;2023-01-08T16:26:46;13.50;;;11.53;;